createdAt,value
2022-11-22T00:01:57.314Z,11.82
2022-11-22T00:04:25.979Z,12.35
2022-11-22T00:06:54.837Z,12.80
2022-11-22T00:09:23.841Z,11.98
2022-11-22T00:11:53.413Z,11.73
2022-11-22T00:14:22.557Z,11.85
2022-11-22T00:16:52.397Z,12.13
2022-11-22T00:19:25.981Z,11.10
2022-11-22T00:21:54.928Z,12.63
2022-11-22T00:24:23.618Z,12.68
2022-11-22T00:26:52.449Z,11.73
2022-11-22T00:29:21.490Z,13.20
2022-11-22T00:31:50.428Z,12.70
2022-11-22T00:34:19.148Z,12.07
2022-11-22T00:36:49.268Z,12.75
2022-11-22T00:39:18.743Z,12.57
2022-11-22T00:41:47.328Z,11.90
2022-11-22T00:44:16.696Z,12.52
2022-11-22T00:46:45.523Z,12.82
2022-11-22T00:49:14.456Z,11.60
2022-11-22T00:51:43.498Z,12.30
2022-11-22T00:54:14.007Z,13.25
2022-11-22T00:56:42.519Z,12.40
2022-11-22T00:59:12.005Z,12.32
2022-11-22T01:01:40.904Z,12.27
2022-11-22T01:04:10.091Z,13.15
2022-11-22T01:06:38.470Z,13.15
2022-11-22T01:09:07.398Z,12.15
2022-11-22T01:11:37.209Z,12.20
2022-11-22T01:14:07.808Z,12.40
2022-11-22T01:16:36.217Z,12.93
2022-11-22T01:19:04.645Z,12.52
2022-11-22T01:21:33.151Z,11.93
2022-11-22T01:24:02.370Z,11.80
2022-11-22T01:26:31.215Z,12.20
2022-11-22T01:29:01.768Z,12.57
2022-11-22T01:31:30.528Z,12.07
2022-11-22T01:33:59.576Z,12.52
2022-11-22T01:36:28.522Z,12.35
2022-11-22T01:38:57.440Z,13.07
2022-11-22T01:41:25.846Z,12.13
2022-11-22T01:43:54.562Z,12.63
2022-11-22T01:46:33.667Z,12.95
2022-11-22T01:49:05.715Z,12.88
2022-11-22T01:51:38.435Z,13.77
2022-11-22T01:54:11.581Z,13.20
2022-11-22T01:56:42.716Z,12.85
2022-11-22T01:59:15.967Z,13.70
2022-11-22T02:01:46.117Z,12.68
2022-11-22T02:04:18.067Z,12.10
2022-11-22T02:06:55.690Z,12.18
2022-11-22T02:09:24.646Z,11.35
2022-11-22T02:11:55.447Z,11.77
2022-11-22T02:14:27.193Z,11.23
2022-11-22T02:16:57.107Z,12.35
2022-11-22T02:19:35.024Z,11.73
2022-11-22T02:22:12.202Z,11.60
2022-11-22T02:24:47.863Z,12.57
2022-11-22T02:27:18.381Z,12.82
2022-11-22T02:29:47.172Z,12.05
2022-11-22T02:32:15.867Z,11.55
2022-11-22T02:34:45.897Z,14.23
2022-11-22T02:37:17.756Z,12.70
2022-11-22T02:39:49.591Z,11.70
2022-11-22T02:42:19.434Z,13.32
2022-11-22T02:44:48.091Z,14.07
2022-11-22T02:47:16.469Z,14.60
2022-11-22T02:49:45.203Z,13.98
2022-11-22T02:52:18.650Z,14.23
2022-11-22T02:54:47.396Z,13.35
2022-11-22T02:57:15.945Z,14.93
2022-11-22T02:59:46.424Z,14.35
2022-11-22T03:02:14.940Z,14.50
2022-11-22T03:04:43.563Z,14.30
2022-11-22T03:07:12.252Z,13.50
2022-11-22T03:09:40.793Z,12.95
2022-11-22T03:12:09.440Z,14.02
2022-11-22T03:14:37.889Z,13.65
2022-11-22T03:17:07.923Z,15.10
2022-11-22T03:19:36.674Z,14.50
2022-11-22T03:22:05.316Z,15.52
2022-11-22T03:24:33.964Z,14.05
2022-11-22T03:27:02.740Z,13.20
2022-11-22T03:29:31.518Z,14.63
2022-11-22T03:32:00.851Z,14.88
2022-11-22T03:34:30.937Z,13.57
2022-11-22T03:36:59.733Z,14.18
2022-11-22T03:39:28.562Z,15.07
2022-11-22T03:41:57.471Z,13.20
2022-11-22T03:44:26.279Z,13.98
2022-11-22T03:46:54.842Z,12.70
2022-11-22T03:49:23.520Z,13.70
2022-11-22T03:51:53.430Z,13.35
2022-11-22T03:54:22.962Z,14.23
2022-11-22T03:56:51.658Z,12.63
2022-11-22T03:59:22.230Z,14.13
2022-11-22T04:01:51.158Z,13.38
2022-11-22T04:04:20.648Z,14.50
2022-11-22T04:06:49.306Z,14.05
2022-11-22T04:09:19.576Z,12.73
2022-11-22T04:11:48.272Z,12.77
2022-11-22T04:14:33.937Z,14.35
2022-11-22T04:17:02.965Z,13.23
2022-11-22T04:19:32.156Z,12.90
2022-11-22T04:21:59.607Z,13.07
2022-11-22T04:24:46.911Z,13.95
2022-11-22T04:27:15.457Z,13.48
2022-11-22T04:29:43.964Z,12.57
2022-11-22T04:32:29.904Z,13.65
2022-11-22T04:34:58.481Z,12.57
2022-11-22T04:37:26.750Z,13.48
2022-11-22T04:39:56.982Z,12.52
2022-11-22T04:42:42.779Z,13.70
2022-11-22T04:45:12.112Z,14.43
2022-11-22T04:47:57.730Z,16.40
2022-11-22T04:50:44.289Z,13.90
2022-11-22T04:53:12.683Z,15.05
2022-11-22T04:55:43.397Z,14.85
2022-11-22T04:58:12.667Z,14.05
2022-11-22T05:00:41.908Z,13.52
2022-11-22T05:03:10.923Z,12.15
2022-11-22T05:05:41.145Z,14.73
2022-11-22T05:08:09.941Z,12.98
2022-11-22T05:10:53.207Z,11.82
2022-11-22T05:13:25.398Z,12.73
2022-11-22T05:15:53.976Z,13.77
2022-11-22T05:18:23.840Z,13.65
2022-11-22T05:20:53.251Z,14.73
2022-11-22T05:23:41.082Z,14.98
2022-11-22T05:26:11.484Z,21.42
2022-11-22T05:28:41.901Z,20.65
2022-11-22T05:31:12.162Z,20.77
2022-11-22T05:33:42.844Z,18.15
2022-11-22T05:36:12.425Z,15.18
2022-11-22T05:38:41.174Z,14.52
2022-11-22T05:41:11.608Z,15.15
2022-11-22T05:43:41.909Z,14.82
2022-11-22T05:46:12.018Z,14.75
2022-11-22T05:48:43.487Z,15.13
2022-11-22T05:51:14.842Z,13.85
2022-11-22T05:53:46.581Z,14.55
2022-11-22T05:56:17.296Z,16.00
2022-11-22T05:58:48.280Z,14.93
2022-11-22T06:01:21.943Z,14.05
2022-11-22T06:03:51.447Z,14.13
2022-11-22T06:06:20.818Z,14.43
2022-11-22T06:08:51.820Z,14.90
2022-11-22T06:11:22.514Z,14.63
2022-11-22T06:13:54.227Z,14.55
2022-11-22T06:16:24.440Z,14.45
2022-11-22T06:18:54.890Z,14.10
2022-11-22T06:21:24.908Z,13.27
2022-11-22T06:23:55.829Z,15.10
2022-11-22T06:26:26.063Z,14.75
2022-11-22T06:28:56.865Z,14.32
2022-11-22T06:31:27.409Z,14.13
2022-11-22T06:33:57.564Z,14.50
2022-11-22T06:36:28.616Z,14.45
2022-11-22T06:38:57.446Z,14.63
2022-11-22T06:41:29.214Z,13.88
2022-11-22T06:46:29.037Z,22.05
2022-11-22T06:48:57.908Z,16.77
2022-11-22T06:51:28.829Z,16.23
2022-11-22T06:53:58.895Z,16.95
2022-11-22T06:56:29.586Z,16.02
2022-11-22T06:59:02.908Z,16.08
2022-11-22T07:01:32.859Z,16.73
2022-11-22T07:04:03.733Z,18.33
2022-11-22T07:06:34.601Z,17.55
2022-11-22T07:09:05.920Z,15.38
2022-11-22T07:11:36.345Z,15.63
2022-11-22T07:14:08.800Z,17.73
2022-11-22T07:16:39.419Z,16.25
2022-11-22T07:19:09.161Z,15.20
2022-11-22T07:21:38.718Z,14.18
2022-11-22T07:24:09.050Z,14.80
2022-11-22T07:26:37.998Z,15.82
2022-11-22T07:29:08.786Z,14.57
2022-11-22T07:31:37.192Z,14.73
2022-11-22T07:34:06.342Z,15.68
2022-11-22T07:36:35.304Z,16.45
2022-11-22T07:39:05.802Z,14.52
2022-11-22T07:41:34.609Z,15.30
2022-11-22T07:44:03.274Z,16.02
2022-11-22T07:46:33.711Z,15.52
2022-11-22T07:49:03.503Z,15.93
2022-11-22T07:51:32.815Z,17.00
2022-11-22T07:54:01.523Z,15.90
2022-11-22T07:56:30.398Z,17.08
2022-11-22T07:58:59.540Z,15.60
2022-11-22T08:01:28.030Z,15.82
2022-11-22T08:03:58.796Z,15.85
2022-11-22T08:06:27.878Z,15.18
2022-11-22T08:09:01.739Z,15.45
2022-11-22T08:11:31.747Z,15.13
2022-11-22T08:14:00.514Z,16.58
2022-11-22T08:16:29.154Z,15.57
2022-11-22T08:19:01.667Z,17.13
2022-11-22T08:21:30.312Z,14.82
2022-11-22T08:24:00.253Z,17.02
2022-11-22T08:26:29.270Z,17.20
2022-11-22T08:29:01.227Z,24.95
2022-11-22T08:34:06.464Z,35.92
2022-11-22T08:36:35.183Z,19.92
2022-11-22T08:39:04.813Z,21.65
2022-11-22T08:41:34.159Z,22.25
2022-11-22T08:44:03.047Z,21.27
2022-11-22T08:46:32.501Z,18.90
2022-11-22T08:49:03.935Z,15.95
2022-11-22T08:51:37.314Z,15.63
2022-11-22T08:54:06.319Z,15.50
2022-11-22T08:56:35.420Z,16.33
2022-11-22T08:59:04.130Z,15.57
2022-11-22T09:01:33.851Z,15.82
2022-11-22T09:04:03.110Z,14.30
2022-11-22T09:09:37.219Z,13.80
2022-11-22T09:12:07.187Z,13.48
2022-11-22T09:14:36.757Z,14.02
2022-11-22T09:17:08.671Z,13.05
2022-11-22T09:19:40.361Z,14.57
2022-11-22T09:22:16.054Z,14.50
2022-11-22T09:24:48.560Z,15.30
2022-11-22T09:27:24.714Z,15.88
2022-11-22T09:29:56.719Z,16.45
2022-11-22T09:32:30.768Z,16.52
2022-11-22T09:35:02.586Z,16.30
2022-11-22T09:37:34.410Z,16.02
2022-11-22T09:40:07.509Z,15.40
2022-11-22T09:43:08.479Z,16.38
2022-11-22T09:45:53.770Z,15.63
2022-11-22T09:48:44.833Z,16.50
2022-11-22T09:51:26.708Z,15.48
2022-11-22T09:54:06.885Z,15.80
2022-11-22T09:56:36.986Z,19.27
2022-11-22T09:59:15.767Z,16.10
2022-11-22T10:01:52.887Z,14.60
2022-11-22T10:04:26.215Z,14.45
2022-11-22T10:07:02.853Z,14.27
2022-11-22T10:09:40.784Z,14.55
2022-11-22T10:12:19.096Z,15.07
2022-11-22T10:14:57.002Z,14.40
2022-11-22T10:17:40.242Z,15.38
2022-11-22T10:20:15.696Z,14.48
2022-11-22T10:22:45.032Z,14.52
2022-11-22T10:25:23.301Z,14.75
2022-11-22T10:28:00.579Z,15.00
2022-11-22T10:30:36.130Z,15.18
2022-11-22T10:33:20.201Z,14.75
2022-11-22T10:36:07.854Z,14.77
2022-11-22T10:39:09.169Z,14.90
2022-11-22T10:41:56.151Z,17.63
2022-11-22T10:44:43.901Z,16.95
2022-11-22T10:47:39.193Z,14.95
2022-11-22T10:50:23.053Z,15.73
2022-11-22T10:53:06.804Z,15.75
2022-11-22T10:55:57.255Z,16.42
2022-11-22T10:58:38.753Z,18.10
2022-11-22T11:01:20.989Z,17.35
2022-11-22T11:03:55.019Z,16.83
2022-11-22T11:06:57.030Z,16.90
2022-11-22T11:12:29.033Z,17.17
2022-11-22T11:15:11.457Z,15.32
2022-11-22T11:17:44.003Z,16.95
2022-11-22T11:20:23.126Z,15.95
2022-11-22T11:23:13.785Z,15.27
2022-11-22T11:25:45.796Z,17.77
2022-11-22T11:28:24.949Z,16.17
2022-11-22T11:31:00.737Z,17.77
2022-11-22T11:33:40.878Z,16.55
2022-11-22T11:36:14.870Z,15.98
2022-11-22T11:38:56.211Z,15.38
2022-11-22T11:41:31.739Z,13.57
2022-11-22T11:44:05.361Z,14.07
2022-11-22T11:46:50.761Z,14.32
2022-11-22T11:49:25.002Z,11.60
2022-11-22T11:51:57.010Z,13.75
2022-11-22T11:54:31.022Z,14.73
2022-11-22T11:57:03.744Z,14.35
2022-11-22T11:59:44.962Z,15.02
2022-11-22T12:02:22.066Z,14.32
2022-11-22T12:04:59.844Z,14.68
2022-11-22T12:07:44.405Z,14.75
2022-11-22T12:10:29.130Z,16.33
2022-11-22T12:13:04.569Z,18.85
2022-11-22T12:15:52.442Z,16.92
2022-11-22T12:18:35.797Z,15.38
2022-11-22T12:21:14.530Z,15.52
2022-11-22T12:24:07.991Z,14.55
2022-11-22T12:26:48.728Z,14.82
2022-11-22T12:29:27.062Z,14.52
2022-11-22T12:32:04.507Z,16.77
2022-11-22T12:34:39.546Z,15.45
2022-11-22T12:37:19.953Z,15.52
2022-11-22T12:39:50.642Z,16.60
2022-11-22T12:42:26.480Z,17.10
2022-11-22T12:45:02.807Z,15.48
2022-11-22T12:47:45.249Z,22.08
2022-11-22T12:50:27.850Z,19.25
2022-11-22T12:53:04.822Z,13.52
2022-11-22T12:55:43.944Z,12.73
2022-11-22T12:58:23.151Z,12.05
2022-11-22T13:01:09.541Z,12.73
2022-11-22T13:03:46.688Z,13.02
2022-11-22T13:06:25.410Z,13.30
2022-11-22T13:09:04.281Z,13.30
2022-11-22T13:11:42.337Z,11.57
2022-11-22T13:14:29.209Z,12.95
2022-11-22T13:16:59.016Z,10.57
2022-11-22T13:19:32.624Z,11.57
2022-11-22T13:22:16.806Z,11.90
2022-11-22T13:25:02.134Z,12.57
2022-11-22T13:27:35.824Z,11.35
2022-11-22T13:30:20.894Z,11.25
2022-11-22T13:32:55.508Z,11.05
2022-11-22T13:35:35.442Z,12.00
2022-11-22T13:38:26.226Z,11.23
2022-11-22T13:41:23.920Z,12.77
2022-11-22T13:43:57.934Z,11.60
2022-11-22T13:46:56.363Z,12.98
2022-11-22T13:49:48.846Z,12.80
2022-11-22T13:52:47.721Z,12.50
2022-11-22T13:55:42.746Z,11.57
2022-11-22T13:58:54.688Z,12.02
2022-11-22T14:02:02.562Z,12.60
2022-11-22T14:04:41.311Z,12.20
2022-11-22T14:07:34.661Z,10.73
2022-11-22T14:10:31.573Z,12.82
2022-11-22T14:16:42.901Z,11.52
2022-11-22T14:19:42.677Z,11.27
2022-11-22T14:22:20.621Z,11.82
2022-11-22T14:25:24.035Z,11.45
2022-11-22T14:27:59.074Z,12.15
2022-11-22T14:30:40.363Z,13.38
2022-11-22T14:33:18.939Z,15.48
2022-11-22T14:36:17.025Z,16.30
2022-11-22T14:38:46.453Z,15.77
2022-11-22T14:41:54.403Z,15.65
2022-11-22T14:44:26.773Z,17.95
2022-11-22T14:47:00.437Z,17.25
2022-11-22T14:49:44.293Z,16.20
2022-11-22T14:52:22.392Z,16.92
2022-11-22T14:54:57.756Z,16.05
2022-11-22T14:57:28.421Z,15.20
2022-11-22T15:00:09.311Z,15.32
2022-11-22T15:03:11.625Z,14.85
2022-11-22T15:09:17.844Z,14.75
2022-11-22T15:09:22.562Z,12.93
2022-11-22T15:12:13.992Z,13.40
2022-11-22T15:59:12.957Z,11.75
2022-11-22T16:01:45.636Z,12.80
2022-11-22T16:04:23.705Z,13.70
2022-11-22T16:06:53.999Z,12.43
2022-11-22T16:09:29.803Z,13.98
2022-11-22T16:12:04.886Z,14.35
2022-11-22T16:14:48.855Z,13.85
2022-11-22T16:17:30.062Z,14.70
2022-11-22T16:20:34.128Z,12.73
2022-11-22T16:23:22.208Z,12.23
2022-11-22T16:25:54.692Z,13.30
2022-11-22T16:28:31.283Z,14.13
2022-11-22T16:31:02.886Z,13.55
2022-11-22T16:33:32.479Z,13.38
2022-11-22T16:36:03.913Z,14.52
2022-11-22T16:41:05.113Z,14.35
2022-11-22T16:43:36.776Z,13.50
2022-11-22T16:46:05.979Z,14.40
2022-11-22T16:48:37.969Z,14.32
2022-11-22T16:51:08.396Z,14.32
2022-11-22T16:53:42.924Z,14.68
2022-11-22T16:56:19.741Z,13.77
2022-11-22T16:58:53.291Z,13.05
2022-11-22T17:01:26.843Z,14.93
2022-11-22T17:03:58.471Z,13.43
2022-11-22T17:09:00.723Z,11.77
2022-11-22T17:11:32.618Z,10.40
2022-11-22T17:14:04.309Z,13.45
2022-11-22T17:16:34.539Z,11.88
2022-11-22T17:19:04.370Z,10.30
2022-11-22T17:21:38.252Z,9.38
2022-11-22T17:24:14.817Z,10.23
2022-11-22T17:26:44.143Z,10.10
2022-11-22T17:29:35.201Z,10.13
2022-11-22T17:32:06.173Z,10.18
2022-11-22T17:34:35.950Z,9.60
2022-11-22T17:37:07.816Z,9.90
2022-11-22T17:42:06.380Z,9.98
2022-11-22T17:44:37.366Z,11.07
2022-11-22T17:47:06.671Z,12.63
2022-11-22T17:49:36.406Z,12.13
2022-11-22T17:52:05.845Z,12.15
2022-11-22T17:54:35.448Z,12.95
2022-11-22T17:57:06.055Z,12.27
2022-11-22T17:59:35.258Z,11.80
2022-11-22T18:02:05.909Z,11.15
2022-11-22T18:04:34.918Z,10.77
2022-11-22T18:07:03.868Z,10.65
2022-11-22T18:09:34.873Z,11.48
2022-11-22T18:12:05.063Z,10.60
2022-11-22T18:14:34.822Z,11.27
2022-11-22T18:17:05.922Z,12.35
2022-11-22T18:19:35.292Z,11.18
2022-11-22T18:22:04.174Z,11.70
2022-11-22T18:24:32.891Z,11.07
2022-11-22T18:27:01.312Z,11.25
2022-11-22T18:29:46.113Z,11.20
2022-11-22T18:32:16.324Z,10.82
2022-11-22T18:34:45.019Z,10.90
2022-11-22T18:37:13.918Z,10.93
2022-11-22T18:39:42.699Z,10.45
2022-11-22T18:42:15.098Z,10.05
2022-11-22T18:44:44.007Z,10.52
2022-11-22T18:47:12.888Z,11.30
2022-11-22T18:49:43.392Z,10.27
2022-11-22T18:52:15.030Z,10.82
2022-11-22T18:54:46.982Z,11.70
2022-11-22T18:57:17.139Z,10.25
2022-11-22T18:59:46.105Z,11.38
2022-11-22T19:02:14.875Z,10.82
2022-11-22T19:04:44.931Z,11.82
2022-11-22T19:07:14.886Z,9.90
2022-11-22T19:09:43.898Z,10.13
2022-11-22T19:12:12.687Z,11.18
2022-11-22T19:14:41.179Z,10.95
2022-11-22T19:17:10.735Z,11.35
2022-11-22T19:19:39.290Z,10.82
2022-11-22T19:22:09.455Z,11.35
2022-11-22T19:24:42.501Z,12.30
2022-11-22T19:27:13.649Z,11.05
2022-11-22T19:29:42.274Z,10.70
2022-11-22T19:32:12.156Z,11.00
2022-11-22T19:34:41.277Z,12.20
2022-11-22T19:37:11.924Z,11.20
2022-11-22T19:39:40.877Z,11.18
2022-11-22T19:42:09.579Z,11.68
2022-11-22T19:44:38.731Z,11.68
2022-11-22T19:47:07.581Z,11.75
2022-11-22T19:49:36.075Z,12.30
2022-11-22T19:52:05.372Z,12.23
2022-11-22T19:54:35.403Z,13.10
2022-11-22T19:57:03.961Z,13.48
2022-11-22T19:59:34.544Z,12.98
2022-11-22T20:02:04.018Z,13.90
2022-11-22T20:04:32.749Z,12.45
2022-11-22T20:07:01.350Z,11.60
2022-11-22T20:09:30.809Z,13.20
2022-11-22T20:12:01.010Z,13.07
2022-11-22T20:14:30.106Z,12.45
2022-11-22T20:16:58.967Z,13.13
2022-11-22T20:19:33.895Z,12.10
2022-11-22T20:22:03.056Z,14.38
2022-11-22T20:24:34.259Z,13.25
2022-11-22T20:27:04.312Z,13.38
2022-11-22T20:29:32.775Z,13.88
2022-11-22T20:32:01.793Z,12.82
2022-11-22T20:34:31.377Z,13.18
2022-11-22T20:37:02.288Z,13.63
2022-11-22T20:39:35.498Z,13.27
2022-11-22T20:42:33.017Z,14.10
2022-11-22T20:44:56.019Z,12.95
2022-11-22T20:47:25.685Z,13.65
2022-11-22T20:49:55.272Z,13.88
2022-11-22T20:52:24.361Z,13.57
2022-11-22T20:54:53.369Z,13.70
2022-11-22T20:57:25.160Z,12.57
2022-11-22T20:59:54.817Z,14.15
2022-11-22T21:02:23.372Z,13.68
2022-11-22T21:04:52.285Z,13.75
2022-11-22T21:07:22.370Z,14.20
2022-11-22T21:09:51.656Z,13.68
2022-11-22T21:12:20.273Z,13.60
2022-11-22T21:14:53.695Z,13.68
2022-11-22T21:17:55.594Z,13.15
2022-11-22T21:20:12.333Z,12.95
2022-11-22T21:22:41.251Z,13.60
2022-11-22T21:25:11.402Z,13.73
2022-11-22T21:27:42.422Z,13.88
2022-11-22T21:32:43.111Z,13.27
2022-11-22T21:35:12.412Z,14.23
2022-11-22T21:37:42.168Z,14.98
2022-11-22T21:40:12.296Z,13.32
2022-11-22T21:42:40.894Z,14.07
2022-11-22T21:45:10.840Z,13.30
2022-11-22T21:47:41.023Z,15.02
2022-11-22T21:50:21.853Z,14.88
2022-11-22T21:52:50.511Z,16.67
2022-11-22T21:55:19.520Z,14.75
2022-11-22T21:57:47.990Z,15.05
2022-11-22T22:00:18.204Z,14.90
2022-11-22T22:02:48.200Z,15.18
2022-11-22T22:05:17.931Z,13.88
2022-11-22T22:07:54.401Z,16.25
2022-11-22T22:10:23.496Z,13.93
2022-11-22T22:12:53.306Z,15.00
2022-11-22T22:15:21.989Z,14.15
2022-11-22T22:17:55.047Z,15.15
2022-11-22T22:20:24.967Z,13.77
2022-11-22T22:22:53.987Z,13.65
2022-11-22T22:25:22.614Z,13.20
2022-11-22T22:27:51.318Z,15.00
2022-11-22T22:30:19.999Z,14.50
2022-11-22T22:32:49.002Z,13.48
2022-11-22T22:35:19.665Z,13.45
2022-11-22T22:37:48.345Z,13.10
2022-11-22T22:40:17.427Z,13.63
2022-11-22T22:42:45.998Z,13.93
2022-11-22T22:45:14.875Z,13.00
2022-11-22T22:47:43.355Z,13.85
2022-11-22T22:50:12.415Z,13.05
2022-11-22T22:52:42.203Z,14.32
2022-11-22T22:55:11.142Z,14.30
2022-11-22T22:57:39.792Z,14.00
2022-11-22T23:00:13.876Z,13.70
2022-11-22T23:02:43.016Z,14.18
2022-11-22T23:05:12.694Z,13.40
2022-11-22T23:07:44.003Z,15.05
2022-11-22T23:10:12.910Z,14.35
2022-11-22T23:12:41.836Z,14.52
2022-11-22T23:15:11.586Z,15.32
2022-11-22T23:17:41.367Z,14.20
2022-11-22T23:20:10.939Z,15.77
2022-11-22T23:22:39.732Z,14.18
2022-11-22T23:25:10.993Z,14.25
2022-11-22T23:27:39.791Z,13.60
2022-11-22T23:30:09.722Z,12.77
2022-11-22T23:32:39.485Z,13.13
2022-11-22T23:35:09.187Z,14.35
2022-11-22T23:37:40.343Z,12.75
2022-11-22T23:40:12.401Z,14.75
2022-11-22T23:42:40.857Z,14.65
2022-11-22T23:45:19.587Z,13.88
2022-11-22T23:47:52.010Z,14.13
2022-11-22T23:50:21.337Z,14.15
2022-11-22T23:52:55.344Z,13.90
2022-11-22T23:55:25.751Z,13.13
2022-11-22T23:57:54.522Z,14.50
